Terminal Aerodrome Forecast
Issued by NWS

Current Version | Previous Version | Text Only | Print | Product List | Glossary On
Versions: 1 2 3 4 5 6 7 8 9 10 11 12 13 14 15 16 17 18 19 20 21 22 23 24 25 26 27 28 29 30
000
FTAK31 PAFA 242334
TAFAFA
TAF
PAFA 242334Z 2500/2606 VRB04KT P6SM VCSH BKN090 BKN150
     FM250900 VRB04KT P6SM VCSH BKN070 BKN150
     FM251200 VRB03KT P6SM -SHRA OVC050
     FM251500 22005KT 3SM -RA BR BKN020 OVC040
     FM252100 25005KT P6SM VCSH SCT020 BKN040 BKN080=

USA.gov is the U.S. government's official web portal to all federal, state and local government web resources and services.